createdAt,value
2022-09-28T00:02:15.132Z,8.23
2022-09-28T00:04:50.407Z,8.21
2022-09-28T00:07:20.400Z,8.13
2022-09-28T00:09:58.465Z,8.13
2022-09-28T00:12:34.285Z,8.09
2022-09-28T00:15:07.087Z,8.03
2022-09-28T00:17:48.290Z,8.05
2022-09-28T00:20:24.127Z,7.96
2022-09-28T00:23:05.201Z,7.91
2022-09-28T00:25:42.718Z,8.00
2022-09-28T00:28:28.893Z,7.93
2022-09-28T00:31:09.613Z,8.01
2022-09-28T00:33:48.358Z,7.99
2022-09-28T00:36:41.092Z,8.05
2022-09-28T00:39:14.957Z,7.94
2022-09-28T00:41:52.623Z,7.95
2022-09-28T00:44:39.957Z,7.88
2022-09-28T00:47:52.072Z,7.88
2022-09-28T00:50:32.371Z,7.94
2022-09-28T00:53:32.787Z,7.88
2022-09-28T00:56:14.416Z,7.82
2022-09-28T00:58:53.192Z,7.77
2022-09-28T01:01:26.813Z,7.77
2022-09-28T01:03:59.851Z,7.81
2022-09-28T01:06:42.333Z,7.76
2022-09-28T01:09:16.381Z,7.83
2022-09-28T01:11:55.031Z,7.88
2022-09-28T01:14:37.175Z,8.02
2022-09-28T01:17:18.580Z,7.87
2022-09-28T01:20:31.379Z,7.82
2022-09-28T01:23:21.455Z,7.71
2022-09-28T01:26:50.901Z,7.69
2022-09-28T01:29:44.665Z,7.66
2022-09-28T01:32:36.805Z,7.55
2022-09-28T01:35:35.799Z,7.58
2022-09-28T01:38:19.924Z,7.42
2022-09-28T01:41:03.884Z,7.37
2022-09-28T01:43:40.557Z,7.32
2022-09-28T01:46:26.593Z,7.30
2022-09-28T01:49:28.440Z,7.29
2022-09-28T01:52:14.564Z,7.33
2022-09-28T01:54:54.959Z,7.32
2022-09-28T01:57:36.470Z,7.34
2022-09-28T02:00:21.849Z,7.26
2022-09-28T02:06:03.454Z,7.22
2022-09-28T02:08:50.666Z,7.24
2022-09-28T02:11:28.707Z,7.25
2022-09-28T02:14:12.264Z,7.32
2022-09-28T02:16:56.261Z,7.24
2022-09-28T02:19:35.695Z,7.24
2022-09-28T02:22:44.828Z,7.31
2022-09-28T02:25:38.884Z,7.24
2022-09-28T02:28:18.646Z,7.20
2022-09-28T02:30:55.720Z,7.17
2022-09-28T02:33:39.997Z,7.11
2022-09-28T02:36:18.512Z,7.07
2022-09-28T02:38:53.132Z,7.07
2022-09-28T02:41:43.291Z,7.03
2022-09-28T02:44:39.287Z,7.04
2022-09-28T02:47:22.660Z,7.10
2022-09-28T02:50:25.580Z,7.16
2022-09-28T02:53:26.360Z,7.20
2022-09-28T02:56:35.320Z,7.10
2022-09-28T02:59:13.001Z,7.10
2022-09-28T03:01:51.747Z,7.08
2022-09-28T03:04:37.734Z,7.10
2022-09-28T03:07:50.684Z,6.99
2022-09-28T03:10:47.421Z,7.08
2022-09-28T03:13:25.739Z,7.07
2022-09-28T03:16:17.419Z,7.07
2022-09-28T03:18:55.008Z,6.96
2022-09-28T03:21:30.320Z,7.03
2022-09-28T03:24:11.342Z,7.07
2022-09-28T03:26:51.662Z,7.07
2022-09-28T03:29:27.849Z,7.13
2022-09-28T03:32:14.529Z,7.15
2022-09-28T03:34:50.391Z,7.20
2022-09-28T03:37:26.859Z,7.17
2022-09-28T03:40:02.193Z,7.16
2022-09-28T03:42:49.141Z,7.11
2022-09-28T03:45:19.218Z,7.05
2022-09-28T03:48:03.301Z,6.98
2022-09-28T03:50:45.271Z,6.87
2022-09-28T03:53:20.635Z,6.87
2022-09-28T03:55:53.829Z,6.77
2022-09-28T03:58:38.287Z,6.76
2022-09-28T04:01:16.425Z,6.73
2022-09-28T04:04:04.176Z,6.69
2022-09-28T04:06:34.069Z,6.82
2022-09-28T04:09:09.851Z,6.83
2022-09-28T04:12:02.646Z,6.85
2022-09-28T04:14:47.852Z,6.89
2022-09-28T04:17:35.474Z,6.83
2022-09-28T04:20:16.033Z,6.87
2022-09-28T04:23:18.242Z,6.82
2022-09-28T04:25:55.285Z,6.91
2022-09-28T04:28:41.445Z,6.97
2022-09-28T04:31:16.764Z,6.93
2022-09-28T04:33:53.774Z,6.89
2022-09-28T04:36:27.827Z,6.91
2022-09-28T04:39:00.606Z,6.90
2022-09-28T04:41:37.528Z,6.87
2022-09-28T04:44:19.171Z,6.80
2022-09-28T04:46:55.794Z,6.78
2022-09-28T04:49:39.573Z,6.79
2022-09-28T04:52:43.750Z,6.78
2022-09-28T04:55:20.753Z,6.77
2022-09-28T04:57:54.159Z,6.82
2022-09-28T05:00:24.161Z,6.84
2022-09-28T05:03:15.234Z,6.82
2022-09-28T05:06:15.566Z,6.83
2022-09-28T05:09:05.391Z,6.86
2022-09-28T05:11:42.148Z,6.89
2022-09-28T05:14:30.251Z,6.92
2022-09-28T05:17:07.527Z,7.06
2022-09-28T05:20:07.837Z,7.05
2022-09-28T05:22:45.666Z,6.99
2022-09-28T05:25:21.525Z,6.95
2022-09-28T05:28:12.358Z,6.93
2022-09-28T05:31:07.926Z,6.92
2022-09-28T05:34:09.765Z,7.01
2022-09-28T05:36:45.897Z,7.16
2022-09-28T05:39:34.675Z,7.32
2022-09-28T05:42:23.787Z,7.48
2022-09-28T05:44:59.217Z,7.50
2022-09-28T05:47:46.294Z,7.74
2022-09-28T05:50:26.921Z,8.01
2022-09-28T05:53:05.953Z,8.22
2022-09-28T05:55:39.992Z,8.48
2022-09-28T05:58:10.312Z,8.60
2022-09-28T06:01:00.667Z,8.82
2022-09-28T06:03:32.238Z,9.06
2022-09-28T06:06:14.955Z,9.18
2022-09-28T06:09:00.774Z,9.37
2022-09-28T06:11:42.847Z,9.59
2022-09-28T06:14:24.573Z,9.82
2022-09-28T06:17:08.515Z,10.02
2022-09-28T06:19:41.468Z,10.26
2022-09-28T06:22:54.008Z,10.50
2022-09-28T06:25:33.140Z,10.72
2022-09-28T06:28:21.344Z,10.92
2022-09-28T06:30:54.189Z,11.04
2022-09-28T06:33:27.678Z,11.06
2022-09-28T06:36:22.647Z,11.23
2022-09-28T06:38:55.557Z,11.44
2022-09-28T06:41:40.048Z,11.68
2022-09-28T06:44:20.991Z,11.89
2022-09-28T06:46:59.699Z,12.04
2022-09-28T06:50:07.300Z,12.08
2022-09-28T06:53:07.514Z,12.24
2022-09-28T06:56:15.151Z,12.39
2022-09-28T06:58:51.376Z,12.54
2022-09-28T07:01:18.519Z,12.65
2022-09-28T07:04:13.263Z,12.62
2022-09-28T07:07:10.163Z,12.66
2022-09-28T07:10:06.157Z,12.85
2022-09-28T07:13:04.320Z,12.85
2022-09-28T07:15:52.441Z,12.88
2022-09-28T07:18:25.965Z,12.95
2022-09-28T07:21:28.844Z,13.09
2022-09-28T07:24:10.157Z,13.28
2022-09-28T07:26:58.971Z,13.12
2022-09-28T07:30:05.825Z,13.29
2022-09-28T07:33:10.406Z,13.42
2022-09-28T07:36:07.338Z,13.56
2022-09-28T07:38:44.209Z,13.58
2022-09-28T07:41:18.202Z,13.64
2022-09-28T07:43:55.557Z,13.65
2022-09-28T07:46:36.801Z,13.81
2022-09-28T07:49:28.733Z,13.93
2022-09-28T07:52:30.969Z,14.12
2022-09-28T07:55:17.408Z,14.10
2022-09-28T07:58:12.833Z,14.14
2022-09-28T08:01:23.729Z,14.17
2022-09-28T08:04:02.152Z,14.23
2022-09-28T08:06:44.081Z,14.31
2022-09-28T08:09:21.947Z,14.33
2022-09-28T08:12:41.458Z,14.52
2022-09-28T08:15:40.141Z,14.51
2022-09-28T08:18:33.580Z,14.47
2022-09-28T08:21:30.914Z,14.43
2022-09-28T08:24:03.332Z,14.35
2022-09-28T08:26:38.749Z,14.47
2022-09-28T08:29:22.059Z,14.34
2022-09-28T08:32:03.184Z,14.51
2022-09-28T08:35:01.322Z,14.60
2022-09-28T08:38:06.049Z,14.60
2022-09-28T08:41:26.771Z,14.57
2022-09-28T08:48:32.091Z,14.62
2022-09-28T08:52:30.003Z,14.73
2022-09-28T08:55:32.299Z,15.06
2022-09-28T08:58:17.642Z,15.21
2022-09-28T09:00:54.450Z,15.19
2022-09-28T09:03:44.279Z,15.30
2022-09-28T09:07:03.830Z,15.28
2022-09-28T09:10:04.537Z,15.03
2022-09-28T09:13:00.759Z,15.07
2022-09-28T09:15:43.254Z,15.30
2022-09-28T09:19:09.662Z,15.08
2022-09-28T09:22:20.784Z,15.24
2022-09-28T09:25:11.470Z,15.37
2022-09-28T09:28:03.079Z,15.51
2022-09-28T09:31:17.681Z,15.48
2022-09-28T09:34:43.127Z,15.34
2022-09-28T09:37:43.933Z,15.29
2022-09-28T09:40:45.623Z,15.31
2022-09-28T09:44:06.948Z,15.30
2022-09-28T09:47:03.907Z,15.28
2022-09-28T09:50:15.140Z,15.50
2022-09-28T09:52:50.998Z,16.06
2022-09-28T09:55:39.517Z,16.04
2022-09-28T09:58:56.246Z,16.14
2022-09-28T10:01:52.155Z,16.18
2022-09-28T10:04:47.075Z,16.37
2022-09-28T10:07:32.639Z,16.57
2022-09-28T10:10:15.939Z,16.80
2022-09-28T10:12:59.679Z,16.73
2022-09-28T10:15:41.382Z,16.85
2022-09-28T10:21:38.558Z,16.53
2022-09-28T10:24:42.958Z,16.49
2022-09-28T10:27:22.868Z,16.28
2022-09-28T10:30:31.362Z,16.22
2022-09-28T10:33:36.580Z,16.06
2022-09-28T10:36:14.748Z,16.21
2022-09-28T10:38:50.867Z,16.25
2022-09-28T10:41:32.089Z,16.31
2022-09-28T10:44:25.041Z,16.55
2022-09-28T10:47:17.135Z,16.60
2022-09-28T10:49:58.509Z,16.76
2022-09-28T10:52:32.785Z,16.84
2022-09-28T10:55:34.553Z,16.85
2022-09-28T10:58:28.244Z,16.96
2022-09-28T11:01:12.007Z,17.09
2022-09-28T11:03:59.926Z,17.25
2022-09-28T11:06:44.297Z,17.16
2022-09-28T11:09:38.543Z,17.16
2022-09-28T11:12:29.844Z,17.06
2022-09-28T11:15:05.032Z,17.21
2022-09-28T11:17:47.187Z,17.55
2022-09-28T11:20:57.035Z,17.49
2022-09-28T11:24:01.483Z,17.44
2022-09-28T11:26:43.552Z,17.40
2022-09-28T11:29:44.777Z,17.57
2022-09-28T11:32:53.557Z,17.62
2022-09-28T11:35:50.758Z,17.58
2022-09-28T11:38:57.106Z,17.62
2022-09-28T11:41:58.826Z,17.31
2022-09-28T11:44:44.983Z,16.92
2022-09-28T11:47:53.894Z,17.08
2022-09-28T11:50:47.536Z,17.14
2022-09-28T11:53:40.908Z,17.25
2022-09-28T11:56:58.638Z,17.27
2022-09-28T11:59:39.075Z,17.53
2022-09-28T12:02:39.833Z,17.49
2022-09-28T12:05:46.504Z,17.58
2022-09-28T12:08:32.835Z,17.54
2022-09-28T12:11:15.696Z,17.60
2022-09-28T12:14:15.142Z,17.67
2022-09-28T12:17:07.650Z,17.86
2022-09-28T12:20:03.162Z,18.00
2022-09-28T12:23:14.463Z,17.74
2022-09-28T12:25:59.797Z,17.58
2022-09-28T12:28:40.430Z,17.82
2022-09-28T12:31:21.946Z,18.04
2022-09-28T12:34:02.664Z,17.97
2022-09-28T12:36:44.796Z,17.60
2022-09-28T12:40:02.948Z,17.75
2022-09-28T12:43:14.962Z,17.95
2022-09-28T12:46:17.502Z,17.87
2022-09-28T12:52:43.804Z,17.72
2022-09-28T12:55:26.202Z,17.82
2022-09-28T12:58:04.211Z,18.02
2022-09-28T13:04:13.349Z,17.87
2022-09-28T13:10:46.399Z,17.57
2022-09-28T13:14:06.641Z,17.93
2022-09-28T13:16:59.747Z,18.20
2022-09-28T13:20:03.712Z,17.99
2022-09-28T13:23:07.529Z,17.97
2022-09-28T13:25:49.860Z,18.27
2022-09-28T13:28:29.567Z,18.43
2022-09-28T13:31:09.982Z,18.40
2022-09-28T13:34:05.019Z,18.23
2022-09-28T13:36:35.525Z,18.31
2022-09-28T13:39:37.657Z,17.79
2022-09-28T13:45:17.480Z,18.22
2022-09-28T13:48:15.506Z,17.66
2022-09-28T13:51:17.594Z,17.19
2022-09-28T13:54:16.023Z,17.02
2022-09-28T13:57:26.134Z,17.07
2022-09-28T14:00:31.866Z,16.97
2022-09-28T14:09:11.040Z,17.22
2022-09-28T14:15:49.353Z,17.27
2022-09-28T14:18:40.802Z,17.32
2022-09-28T14:22:02.409Z,17.27
2022-09-28T14:24:55.911Z,17.48
2022-09-28T14:28:01.311Z,17.44
2022-09-28T14:30:49.688Z,17.48
2022-09-28T14:33:25.721Z,17.54
2022-09-28T14:39:59.627Z,17.47
2022-09-28T14:47:13.290Z,17.51
2022-09-28T14:50:27.173Z,17.23
2022-09-28T14:53:24.748Z,16.83
2022-09-28T14:56:00.615Z,16.66
2022-09-28T14:58:42.740Z,16.65
2022-09-28T15:01:27.120Z,16.41
2022-09-28T15:04:10.634Z,16.71
2022-09-28T15:06:50.313Z,16.46
2022-09-28T15:09:30.533Z,16.55
2022-09-28T15:12:27.462Z,16.37
2022-09-28T15:15:12.128Z,16.38
2022-09-28T15:20:44.118Z,16.49
2022-09-28T15:23:44.154Z,16.18
2022-09-28T15:26:34.582Z,15.91
2022-09-28T15:29:14.495Z,15.74
2022-09-28T15:31:54.336Z,15.63
2022-09-28T15:35:20.147Z,15.60
2022-09-28T15:37:58.737Z,15.59
2022-09-28T15:40:28.506Z,15.46
2022-09-28T15:43:13.042Z,15.32
2022-09-28T15:45:56.791Z,15.11
2022-09-28T15:48:42.026Z,15.13
2022-09-28T15:51:12.773Z,15.03
2022-09-28T15:53:56.272Z,14.81
2022-09-28T15:56:27.706Z,14.77
2022-09-28T15:59:32.565Z,14.68
2022-09-28T16:02:12.334Z,14.61
2022-09-28T16:04:48.291Z,14.64
2022-09-28T16:07:55.227Z,14.49
2022-09-28T16:10:39.541Z,14.52
2022-09-28T16:13:25.874Z,14.35
2022-09-28T16:16:00.169Z,14.41
2022-09-28T16:18:33.155Z,14.32
2022-09-28T16:21:34.594Z,14.30
2022-09-28T16:24:06.493Z,14.25
2022-09-28T16:26:41.678Z,14.20
2022-09-28T16:29:40.988Z,14.13
2022-09-28T16:32:29.724Z,14.07
2022-09-28T16:35:16.024Z,13.99
2022-09-28T16:37:50.588Z,14.05
2022-09-28T16:40:23.878Z,14.11
2022-09-28T16:42:58.722Z,14.05
2022-09-28T16:45:34.252Z,14.01
2022-09-28T16:48:03.101Z,13.94
2022-09-28T16:50:30.317Z,13.92
2022-09-28T16:53:44.920Z,13.88
2022-09-28T16:56:18.564Z,13.80
2022-09-28T16:58:50.537Z,13.85
2022-09-28T17:01:20.154Z,13.83
2022-09-28T17:03:57.947Z,13.66
2022-09-28T17:06:26.074Z,13.65
2022-09-28T17:08:59.058Z,13.62
2022-09-28T17:11:34.672Z,13.43
2022-09-28T17:14:04.586Z,13.42
2022-09-28T17:19:34.664Z,13.46
2022-09-28T17:22:01.725Z,13.47
2022-09-28T17:24:35.315Z,13.45
2022-09-28T17:27:09.955Z,13.44
2022-09-28T17:29:39.804Z,13.51
2022-09-28T17:32:19.041Z,13.48
2022-09-28T17:35:22.630Z,13.43
2022-09-28T17:37:50.089Z,13.46
2022-09-28T17:40:25.849Z,13.46
2022-09-28T17:42:57.497Z,13.45
2022-09-28T17:45:39.429Z,13.48
2022-09-28T17:48:21.930Z,13.40
2022-09-28T17:53:41.551Z,13.41
2022-09-28T17:56:22.564Z,13.42
2022-09-28T17:58:54.804Z,13.49
2022-09-28T18:01:27.302Z,13.36
2022-09-28T18:03:57.578Z,13.38
2022-09-28T18:06:27.416Z,13.34
2022-09-28T18:08:54.415Z,13.15
2022-09-28T18:11:21.684Z,13.03
2022-09-28T18:13:53.486Z,12.83
2022-09-28T18:16:29.803Z,12.76
2022-09-28T18:19:03.677Z,12.66
2022-09-28T18:21:35.931Z,12.59
2022-09-28T18:24:06.682Z,12.59
2022-09-28T18:26:43.299Z,12.60
2022-09-28T18:29:24.490Z,12.48
2022-09-28T18:32:06.760Z,12.38
2022-09-28T18:34:44.541Z,12.33
2022-09-28T18:37:29.195Z,12.24
2022-09-28T18:39:58.152Z,12.15
2022-09-28T18:42:39.785Z,12.06
2022-09-28T18:45:19.595Z,12.04
2022-09-28T18:47:49.104Z,11.93
2022-09-28T18:50:16.136Z,11.82
2022-09-28T18:52:47.582Z,11.85
2022-09-28T18:55:21.637Z,11.82
2022-09-28T18:57:56.511Z,11.83
2022-09-28T19:00:31.442Z,11.73
2022-09-28T19:03:00.473Z,11.78
2022-09-28T19:05:31.608Z,11.68
2022-09-28T19:08:01.259Z,11.66
2022-09-28T19:10:34.275Z,11.68
2022-09-28T19:13:13.316Z,11.62
2022-09-28T19:15:46.913Z,11.60
2022-09-28T19:18:20.770Z,11.54
2022-09-28T19:20:50.909Z,11.52
2022-09-28T19:23:49.796Z,11.48
2022-09-28T19:26:28.321Z,11.51
2022-09-28T19:29:02.895Z,11.51
2022-09-28T19:31:42.819Z,11.51
2022-09-28T19:34:26.953Z,11.42
2022-09-28T19:37:08.088Z,11.46
2022-09-28T19:39:44.888Z,11.38
2022-09-28T19:42:23.331Z,11.37
2022-09-28T19:44:56.559Z,11.48
2022-09-28T19:47:23.544Z,11.47
2022-09-28T19:49:56.596Z,11.43
2022-09-28T19:52:37.021Z,11.46
2022-09-28T19:55:18.300Z,11.44
2022-09-28T19:57:57.073Z,11.42
2022-09-28T20:00:32.507Z,11.39
2022-09-28T20:03:08.039Z,11.40
2022-09-28T20:08:34.252Z,11.25
2022-09-28T20:11:01.740Z,11.28
2022-09-28T20:13:39.057Z,11.27
2022-09-28T20:16:19.306Z,11.33
2022-09-28T20:18:51.575Z,11.39
2022-09-28T20:21:25.694Z,11.40
2022-09-28T20:23:57.641Z,11.36
2022-09-28T20:26:28.082Z,11.38
2022-09-28T20:28:58.348Z,11.42
2022-09-28T20:31:45.566Z,11.39
2022-09-28T20:34:15.620Z,11.40
2022-09-28T20:39:47.020Z,11.50
2022-09-28T20:42:22.598Z,11.50
2022-09-28T20:44:51.858Z,11.52
2022-09-28T20:47:24.393Z,11.60
2022-09-28T20:50:01.921Z,11.57
2022-09-28T20:52:43.325Z,11.56
2022-09-28T20:55:12.820Z,11.54
2022-09-28T20:57:39.746Z,11.53
2022-09-28T21:00:15.780Z,11.66
2022-09-28T21:02:51.782Z,11.60
2022-09-28T21:05:27.319Z,11.67
2022-09-28T21:08:05.371Z,11.58
2022-09-28T21:10:37.708Z,11.58
2022-09-28T21:13:15.315Z,11.56
2022-09-28T21:15:44.970Z,11.51
2022-09-28T21:18:15.676Z,11.43
2022-09-28T21:20:53.478Z,11.50
2022-09-28T21:23:30.507Z,11.56
2022-09-28T21:26:10.814Z,11.56
2022-09-28T21:28:43.206Z,11.50
2022-09-28T21:31:22.690Z,11.58
2022-09-28T21:34:03.398Z,11.59
2022-09-28T21:36:33.899Z,11.56
2022-09-28T21:39:10.727Z,11.58
2022-09-28T21:41:40.617Z,11.62
2022-09-28T21:44:08.705Z,11.67
2022-09-28T21:46:39.155Z,11.74
2022-09-28T21:49:16.888Z,11.73
2022-09-28T21:51:55.012Z,11.78
2022-09-28T21:54:27.709Z,11.76
2022-09-28T21:56:55.707Z,11.76
2022-09-28T21:59:31.345Z,11.81
2022-09-28T22:02:01.126Z,11.80
2022-09-28T22:04:33.713Z,11.78
2022-09-28T22:07:01.139Z,11.86
2022-09-28T22:09:30.397Z,11.81
2022-09-28T22:12:01.256Z,11.82
2022-09-28T22:14:29.904Z,11.82
2022-09-28T22:17:04.508Z,11.81
2022-09-28T22:19:35.094Z,11.79
2022-09-28T22:22:07.648Z,11.76
2022-09-28T22:24:46.339Z,11.72
2022-09-28T22:27:16.151Z,11.73
2022-09-28T22:29:43.370Z,11.72
2022-09-28T22:32:11.329Z,11.76
2022-09-28T22:34:38.327Z,11.76
2022-09-28T22:37:08.979Z,11.73
2022-09-28T22:39:38.709Z,11.76
2022-09-28T22:42:11.357Z,11.73
2022-09-28T22:44:42.434Z,11.73
2022-09-28T22:47:17.475Z,11.73
2022-09-28T22:49:44.506Z,11.71
2022-09-28T22:52:11.375Z,11.68
2022-09-28T22:54:45.683Z,11.66
2022-09-28T22:57:17.191Z,11.65
2022-09-28T22:59:50.754Z,11.70
2022-09-28T23:02:20.805Z,11.69
2022-09-28T23:04:56.509Z,11.71
2022-09-28T23:07:26.611Z,11.69
2022-09-28T23:10:03.103Z,11.71
2022-09-28T23:12:30.654Z,11.66
2022-09-28T23:14:57.626Z,11.73
2022-09-28T23:17:27.995Z,11.74
2022-09-28T23:20:00.474Z,11.64
2022-09-28T23:22:30.435Z,11.60
2022-09-28T23:24:57.422Z,11.59
2022-09-28T23:27:27.357Z,11.62
2022-09-28T23:29:57.521Z,11.61
2022-09-28T23:32:31.785Z,11.48
2022-09-28T23:35:00.886Z,11.44
2022-09-28T23:37:39.280Z,11.42
2022-09-28T23:40:12.085Z,11.39
2022-09-28T23:42:42.175Z,11.40
2022-09-28T23:45:10.009Z,11.38
2022-09-28T23:47:42.317Z,11.40
2022-09-28T23:50:21.555Z,11.41
2022-09-28T23:52:54.845Z,11.37
2022-09-28T23:55:29.994Z,11.39
2022-09-28T23:58:00.172Z,11.37
